createdAt,value
2017-11-23T00:00:51.517Z,-0.18
2017-11-23T00:03:21.238Z,-0.24
2017-11-23T00:05:51.153Z,-0.26
2017-11-23T00:08:20.982Z,-0.31
2017-11-23T00:10:51.030Z,-0.38
2017-11-23T00:13:20.952Z,-0.42
2017-11-23T00:15:50.522Z,-0.47
2017-11-23T00:18:20.282Z,-0.45
2017-11-23T00:20:50.185Z,-0.50
2017-11-23T00:23:20.055Z,-0.54
2017-11-23T00:25:49.969Z,-0.49
2017-11-23T00:28:19.805Z,-0.56
2017-11-23T00:30:49.787Z,-0.55
2017-11-23T00:33:19.669Z,-0.44
2017-11-23T00:35:49.517Z,-0.30
2017-11-23T00:38:19.287Z,-0.22
2017-11-23T00:40:49.095Z,-0.27
2017-11-23T00:43:18.888Z,-0.33
2017-11-23T00:45:48.770Z,-0.35
2017-11-23T00:48:18.664Z,-0.21
2017-11-23T00:50:48.862Z,-0.28
2017-11-23T00:53:18.647Z,-0.42
2017-11-23T00:55:48.556Z,-0.53
2017-11-23T00:58:19.168Z,-0.58
2017-11-23T01:00:49.755Z,-0.67
2017-11-23T01:03:19.421Z,-0.72
2017-11-23T01:05:49.327Z,-0.64
2017-11-23T01:08:19.438Z,-0.64
2017-11-23T01:10:49.387Z,-0.73
2017-11-23T01:13:19.263Z,-0.73
2017-11-23T01:15:49.197Z,-0.77
2017-11-23T01:18:19.047Z,-0.83
2017-11-23T01:20:49.043Z,-0.86
2017-11-23T01:23:19.397Z,-0.88
2017-11-23T01:25:49.371Z,-0.88
2017-11-23T01:28:19.599Z,-0.68
2017-11-23T01:30:49.526Z,-0.70
2017-11-23T01:33:19.358Z,-0.66
2017-11-23T01:35:49.150Z,-0.73
2017-11-23T01:38:19.004Z,-0.86
2017-11-23T01:40:48.935Z,-0.91
2017-11-23T01:43:18.275Z,-0.97
2017-11-23T01:45:47.920Z,-0.96
2017-11-23T01:48:17.597Z,-0.84
2017-11-23T01:50:47.210Z,-0.55
2017-11-23T01:53:16.943Z,-0.43
2017-11-23T01:55:46.701Z,-0.30
2017-11-23T01:58:15.878Z,-0.20
2017-11-23T02:00:45.765Z,-0.25
2017-11-23T02:03:15.470Z,-0.35
2017-11-23T02:05:45.385Z,-0.39
2017-11-23T02:08:15.205Z,-0.44
2017-11-23T02:10:44.938Z,-0.61
2017-11-23T02:13:14.550Z,-0.71
2017-11-23T02:15:44.312Z,-0.61
2017-11-23T02:18:13.947Z,-0.69
2017-11-23T02:20:43.390Z,-0.69
2017-11-23T02:23:13.358Z,-0.66
2017-11-23T02:25:43.118Z,-0.60
2017-11-23T02:28:12.554Z,-0.63
2017-11-23T02:30:41.934Z,-0.64
2017-11-23T02:33:11.673Z,-0.61
2017-11-23T02:35:41.512Z,-0.57
2017-11-23T02:38:11.436Z,-0.47
2017-11-23T02:40:40.962Z,-0.36
2017-11-23T02:43:10.465Z,-0.21
2017-11-23T02:45:39.660Z,-0.11
2017-11-23T02:48:09.204Z,-0.04
2017-11-23T02:50:38.826Z,0.04
2017-11-23T02:53:08.504Z,0.09
2017-11-23T02:55:38.421Z,0.14
2017-11-23T02:58:07.939Z,0.19
2017-11-23T03:00:37.741Z,0.22
2017-11-23T03:03:07.666Z,0.29
2017-11-23T03:05:45.943Z,0.32
2017-11-23T03:08:16.611Z,0.48
2017-11-23T03:10:46.823Z,0.54
2017-11-23T03:13:16.695Z,0.63
2017-11-23T03:15:46.538Z,0.79
2017-11-23T03:18:16.548Z,0.91
2017-11-23T03:20:46.210Z,1.07
2017-11-23T03:23:15.987Z,1.07
2017-11-23T03:25:45.902Z,1.07
2017-11-23T03:28:15.816Z,1.21
2017-11-23T03:30:45.620Z,1.26
2017-11-23T03:33:15.474Z,1.32
2017-11-23T03:35:45.312Z,1.33
2017-11-23T03:38:15.163Z,1.24
2017-11-23T03:40:44.898Z,1.25
2017-11-23T03:43:14.874Z,1.36
2017-11-23T03:45:45.092Z,1.34
2017-11-23T03:48:14.883Z,1.29
2017-11-23T03:50:44.901Z,1.35
2017-11-23T03:53:14.556Z,1.32
2017-11-23T03:55:44.920Z,1.21
2017-11-23T03:58:14.827Z,1.29
2017-11-23T04:00:44.427Z,1.35
2017-11-23T04:03:13.755Z,1.35
2017-11-23T04:05:50.814Z,1.30
2017-11-23T04:08:23.093Z,1.34
2017-11-23T04:10:53.252Z,1.41
2017-11-23T04:13:35.089Z,1.32
2017-11-23T04:16:07.120Z,1.25
2017-11-23T04:18:36.998Z,1.15
2017-11-23T04:21:06.551Z,1.16
2017-11-23T04:23:36.209Z,1.05
2017-11-23T04:26:05.715Z,1.20
2017-11-23T04:28:35.621Z,1.31
2017-11-23T04:31:05.521Z,1.24
2017-11-23T04:33:35.446Z,1.21
2017-11-23T04:36:05.879Z,1.21
2017-11-23T04:38:35.801Z,1.06
2017-11-23T04:41:05.400Z,1.15
2017-11-23T04:43:34.877Z,1.24
2017-11-23T04:46:04.745Z,1.17
2017-11-23T04:48:34.669Z,1.24
2017-11-23T04:51:04.515Z,1.30
2017-11-23T04:53:34.238Z,1.28
2017-11-23T04:56:03.902Z,1.21
2017-11-23T04:58:33.478Z,1.12
2017-11-23T05:01:02.972Z,1.07
2017-11-23T05:03:32.892Z,1.06
2017-11-23T05:06:02.751Z,1.12
2017-11-23T05:08:32.516Z,1.15
2017-11-23T05:11:02.599Z,1.14
2017-11-23T05:13:32.509Z,1.05
2017-11-23T05:16:02.369Z,1.08
2017-11-23T05:18:32.222Z,1.08
2017-11-23T05:21:16.560Z,1.03
2017-11-23T05:23:48.247Z,0.94
2017-11-23T05:26:18.123Z,0.98
2017-11-23T05:28:47.877Z,0.69
2017-11-23T05:31:18.023Z,0.67
2017-11-23T05:33:47.991Z,0.68
2017-11-23T05:36:18.061Z,0.77
2017-11-23T05:38:47.896Z,0.88
2017-11-23T05:41:26.648Z,0.85
2017-11-23T05:43:58.792Z,0.87
2017-11-23T05:46:28.741Z,0.89
2017-11-23T05:48:58.657Z,0.84
2017-11-23T05:51:28.461Z,0.92
2017-11-23T05:53:58.419Z,0.84
2017-11-23T05:56:28.140Z,0.91
2017-11-23T05:58:58.256Z,0.80
2017-11-23T06:01:28.132Z,0.76
2017-11-23T06:06:34.563Z,0.78
2017-11-23T06:09:03.770Z,0.80
2017-11-23T06:11:33.705Z,0.86
2017-11-23T06:14:03.599Z,0.83
2017-11-23T06:16:33.433Z,0.81
2017-11-23T06:19:03.387Z,0.83
2017-11-23T06:21:42.770Z,0.92
2017-11-23T06:24:12.687Z,0.98
2017-11-23T06:26:46.835Z,0.87
2017-11-23T06:41:50.164Z,0.96
2017-11-23T06:44:22.673Z,1.02
2017-11-23T06:46:52.998Z,1.25
2017-11-23T06:49:28.173Z,1.46
2017-11-23T06:51:59.007Z,1.54
2017-11-23T06:54:29.219Z,1.43
2017-11-23T06:57:03.826Z,1.44
2017-11-23T06:59:33.934Z,1.53
2017-11-23T07:02:04.020Z,1.46
2017-11-23T07:04:34.851Z,1.53
2017-11-23T07:07:06.596Z,1.67
2017-11-23T07:09:36.832Z,1.60
2017-11-23T07:12:09.672Z,1.64
2017-11-23T07:14:39.645Z,1.74
2017-11-23T07:17:10.128Z,1.60
2017-11-23T07:19:39.907Z,1.60
2017-11-23T07:22:10.032Z,1.69
2017-11-23T07:24:40.865Z,1.73
2017-11-23T07:27:10.766Z,1.68
2017-11-23T07:29:40.690Z,1.66
2017-11-23T07:32:12.092Z,1.79
2017-11-23T07:34:42.261Z,1.72
2017-11-23T07:37:13.163Z,1.84
2017-11-23T07:39:43.507Z,1.81
2017-11-23T07:42:15.938Z,2.02
2017-11-23T07:44:46.093Z,2.06
2017-11-23T07:47:18.757Z,2.06
2017-11-23T07:49:48.654Z,2.14
2017-11-23T07:52:18.455Z,2.16
2017-11-23T07:54:49.044Z,2.09
2017-11-23T07:57:19.382Z,2.06
2017-11-23T07:59:50.327Z,2.02
2017-11-23T08:02:22.880Z,1.98
2017-11-23T08:04:52.813Z,1.97
2017-11-23T08:07:26.682Z,2.06
2017-11-23T08:09:57.148Z,1.99
2017-11-23T08:12:27.009Z,2.08
2017-11-23T08:14:56.888Z,2.04
2017-11-23T08:17:26.438Z,2.13
2017-11-23T08:19:56.401Z,2.07
2017-11-23T08:22:26.828Z,2.25
2017-11-23T08:24:56.779Z,2.28
2017-11-23T08:27:26.734Z,2.28
2017-11-23T08:29:56.354Z,2.55
2017-11-23T08:32:30.519Z,2.92
2017-11-23T08:35:01.541Z,2.80
2017-11-23T08:37:31.997Z,3.23
2017-11-23T08:40:03.269Z,3.54
2017-11-23T08:42:33.279Z,3.77
2017-11-23T08:45:03.954Z,3.85
2017-11-23T08:47:34.064Z,3.86
2017-11-23T08:50:03.876Z,4.08
2017-11-23T08:52:33.882Z,4.24
2017-11-23T08:55:03.777Z,4.29
2017-11-23T08:57:33.630Z,4.83
2017-11-23T09:00:03.650Z,5.39
2017-11-23T09:02:33.540Z,6.04
2017-11-23T09:05:06.503Z,6.18
2017-11-23T09:07:36.544Z,6.27
2017-11-23T09:10:06.765Z,6.03
2017-11-23T09:12:40.697Z,6.39
2017-11-23T09:15:10.420Z,6.99
2017-11-23T09:17:40.694Z,7.22
2017-11-23T09:20:11.161Z,7.19
2017-11-23T09:22:41.234Z,7.98
2017-11-23T09:25:11.412Z,7.86
2017-11-23T09:27:41.236Z,7.46
2017-11-23T09:30:11.986Z,7.11
2017-11-23T09:32:42.098Z,7.23
2017-11-23T09:35:12.344Z,7.64
2017-11-23T09:37:42.474Z,7.63
2017-11-23T09:40:12.842Z,7.89
2017-11-23T09:42:42.900Z,8.03
2017-11-23T09:45:13.567Z,8.50
2017-11-23T09:47:43.763Z,8.83
2017-11-23T09:50:13.541Z,8.80
2017-11-23T09:52:43.352Z,8.83
2017-11-23T09:55:13.212Z,9.47
2017-11-23T09:57:44.622Z,9.54
2017-11-23T10:00:14.569Z,9.54
2017-11-23T10:02:45.926Z,9.25
2017-11-23T10:05:15.755Z,9.48
2017-11-23T10:07:45.571Z,9.98
2017-11-23T10:10:15.325Z,10.54
2017-11-23T10:12:45.120Z,13.16
2017-11-23T10:15:15.560Z,14.30
2017-11-23T10:17:45.223Z,14.18
2017-11-23T10:20:15.054Z,15.39
2017-11-23T10:22:44.944Z,15.03
2017-11-23T10:25:14.819Z,14.53
2017-11-23T10:27:44.591Z,13.96
2017-11-23T10:30:14.586Z,13.09
2017-11-23T10:32:45.378Z,12.46
2017-11-23T10:35:15.263Z,13.18
2017-11-23T10:37:45.234Z,15.05
2017-11-23T10:40:15.865Z,14.53
2017-11-23T10:42:45.762Z,13.94
2017-11-23T10:45:15.521Z,13.96
2017-11-23T10:47:53.655Z,16.91
2017-11-23T10:50:23.376Z,19.62
2017-11-23T10:52:53.714Z,21.52
2017-11-23T10:55:26.087Z,23.49
2017-11-23T10:57:56.017Z,22.93
2017-11-23T11:00:25.910Z,19.82
2017-11-23T11:02:55.522Z,21.63
2017-11-23T11:05:25.382Z,24.61
2017-11-23T11:07:55.711Z,25.46
2017-11-23T11:10:25.740Z,25.27
2017-11-23T11:12:56.150Z,24.88
2017-11-23T11:15:27.460Z,26.29
2017-11-23T11:17:57.627Z,26.12
2017-11-23T11:20:29.779Z,27.65
2017-11-23T11:22:59.825Z,28.39
2017-11-23T11:25:31.930Z,29.39
2017-11-23T11:28:01.878Z,28.74
2017-11-23T11:30:31.469Z,29.03
2017-11-23T11:33:01.179Z,29.91
2017-11-23T11:35:30.830Z,28.91
2017-11-23T11:38:00.411Z,29.04
2017-11-23T11:40:32.050Z,24.16
2017-11-23T11:43:01.953Z,24.89
2017-11-23T11:45:32.731Z,23.12
2017-11-23T11:48:02.446Z,21.97
2017-11-23T11:50:32.255Z,23.97
2017-11-23T11:53:02.095Z,26.03
2017-11-23T11:55:31.657Z,24.80
2017-11-23T11:58:02.562Z,29.04
2017-11-23T12:00:43.440Z,28.84
2017-11-23T12:03:16.251Z,28.65
2017-11-23T12:05:46.031Z,26.35
2017-11-23T12:08:15.765Z,28.36
2017-11-23T12:10:45.619Z,30.16
2017-11-23T12:13:15.696Z,29.81
2017-11-23T12:15:56.640Z,28.17
2017-11-23T12:18:33.334Z,27.01
2017-11-23T12:21:26.809Z,19.62
2017-11-23T12:24:07.419Z,26.57
2017-11-23T12:26:36.960Z,27.72
2017-11-23T12:29:17.959Z,28.18
2017-11-23T12:31:47.511Z,27.03
2017-11-23T12:34:17.245Z,26.79
2017-11-23T12:36:47.496Z,23.59
2017-11-23T12:39:18.050Z,21.17
2017-11-23T12:41:47.990Z,20.26
2017-11-23T12:44:17.892Z,20.57
2017-11-23T12:46:47.963Z,20.82
2017-11-23T12:49:17.905Z,20.70
2017-11-23T12:51:47.813Z,20.11
2017-11-23T12:54:17.713Z,19.97
2017-11-23T12:56:47.949Z,21.21
2017-11-23T12:59:17.699Z,19.77
2017-11-23T13:01:48.081Z,18.18
2017-11-23T13:04:18.980Z,18.70
2017-11-23T13:06:48.588Z,19.12
2017-11-23T13:09:18.638Z,18.43
2017-11-23T13:11:49.217Z,20.01
2017-11-23T13:14:19.498Z,21.50
2017-11-23T13:16:50.063Z,20.59
2017-11-23T13:19:19.595Z,20.57
2017-11-23T13:21:49.653Z,20.72
2017-11-23T13:24:21.064Z,21.83
2017-11-23T13:26:51.376Z,23.70
2017-11-23T13:29:21.639Z,23.86
2017-11-23T13:31:51.825Z,23.45
2017-11-23T13:34:21.944Z,25.36
2017-11-23T13:36:52.781Z,21.21
2017-11-23T13:39:22.481Z,18.06
2017-11-23T13:41:52.197Z,17.50
2017-11-23T13:44:21.733Z,19.44
2017-11-23T13:46:51.485Z,17.85
2017-11-23T13:49:21.678Z,17.16
2017-11-23T13:51:51.558Z,17.47
2017-11-23T13:54:21.327Z,18.62
2017-11-23T14:02:00.100Z,20.72
2017-11-23T14:04:29.803Z,19.45
2017-11-23T14:06:59.770Z,21.50
2017-11-23T14:09:29.582Z,20.84
2017-11-23T14:11:59.097Z,19.85
2017-11-23T14:14:29.027Z,18.58
2017-11-23T14:16:59.101Z,17.89
2017-11-23T14:19:28.739Z,18.02
2017-11-23T14:21:59.025Z,17.54
2017-11-23T14:24:29.060Z,17.86
2017-11-23T14:26:59.456Z,18.60
2017-11-23T14:29:33.601Z,17.15
2017-11-23T14:32:03.274Z,15.85
2017-11-23T14:34:32.838Z,13.83
2017-11-23T14:37:02.487Z,12.56
2017-11-23T14:39:32.373Z,11.94
2017-11-23T14:42:02.586Z,10.86
2017-11-23T14:44:33.195Z,9.23
2017-11-23T14:47:03.260Z,8.07
2017-11-23T14:49:33.183Z,7.21
2017-11-23T14:52:03.240Z,6.93
2017-11-23T14:54:33.842Z,6.77
2017-11-23T14:57:03.688Z,6.46
2017-11-23T14:59:35.214Z,6.10
2017-11-23T15:02:06.274Z,5.92
2017-11-23T15:04:36.205Z,5.78
2017-11-23T15:07:06.120Z,5.64
2017-11-23T15:12:14.097Z,5.53
2017-11-23T15:14:45.593Z,5.54
2017-11-23T15:17:16.002Z,5.37
2017-11-23T15:19:48.993Z,5.17
2017-11-23T15:22:19.162Z,5.22
2017-11-23T15:24:49.408Z,4.99
2017-11-23T15:27:19.476Z,5.00
2017-11-23T15:29:49.416Z,4.97
2017-11-23T15:32:19.403Z,4.88
2017-11-23T15:34:49.415Z,4.80
2017-11-23T15:37:19.440Z,4.52
2017-11-23T15:39:50.203Z,4.47
2017-11-23T15:42:21.044Z,4.44
2017-11-23T15:44:50.954Z,4.43
2017-11-23T15:47:20.932Z,4.40
2017-11-23T15:49:52.799Z,4.15
2017-11-23T15:52:25.097Z,3.91
2017-11-23T15:55:02.571Z,3.84
2017-11-23T15:57:48.052Z,3.66
2017-11-23T16:00:17.954Z,3.50
2017-11-23T16:02:50.671Z,3.45
2017-11-23T16:05:29.405Z,3.50
2017-11-23T16:07:59.315Z,3.34
2017-11-23T16:10:30.162Z,3.28
2017-11-23T16:13:00.360Z,3.20
2017-11-23T16:15:30.700Z,3.15
2017-11-23T16:18:00.721Z,3.12
2017-11-23T16:20:30.602Z,2.99
2017-11-23T16:23:00.492Z,2.89
2017-11-23T16:25:30.620Z,2.84
2017-11-23T16:28:00.343Z,2.77
2017-11-23T16:30:30.053Z,2.68
2017-11-23T16:33:00.154Z,2.60
2017-11-23T16:35:31.199Z,2.58
2017-11-23T16:38:01.488Z,2.56
2017-11-23T16:40:36.843Z,2.43
2017-11-23T16:43:11.751Z,2.25
2017-11-23T16:48:47.706Z,2.18
2017-11-23T16:51:26.244Z,2.10
2017-11-23T16:57:29.464Z,2.08
2017-11-23T17:08:55.673Z,1.98
2017-11-23T17:14:46.537Z,1.95
2017-11-23T17:17:36.200Z,1.92
2017-11-23T17:22:55.714Z,1.77
2017-11-23T17:25:34.069Z,1.69
2017-11-23T17:28:08.372Z,1.66
2017-11-23T17:35:49.008Z,1.75
2017-11-23T17:43:26.882Z,1.44
2017-11-23T17:51:14.127Z,1.31
2017-11-23T17:53:44.599Z,1.28
2017-11-23T17:56:17.004Z,1.26
2017-11-23T17:58:47.100Z,1.28
2017-11-23T18:03:54.411Z,1.24
2017-11-23T18:06:24.852Z,1.22
2017-11-23T18:08:55.992Z,1.20
2017-11-23T18:11:26.099Z,1.14
2017-11-23T18:16:31.141Z,1.14
2017-11-23T18:19:05.926Z,1.12
2017-11-23T18:21:35.885Z,1.08
2017-11-23T18:24:06.263Z,1.03
2017-11-23T18:26:36.263Z,1.06
2017-11-23T18:29:06.318Z,1.14
2017-11-23T18:31:39.824Z,1.07
2017-11-23T18:34:09.728Z,1.03
2017-11-23T18:36:39.702Z,0.95
2017-11-23T18:39:09.751Z,1.01
2017-11-23T18:41:40.387Z,1.00
2017-11-23T18:44:11.176Z,0.98
2017-11-23T18:46:44.931Z,1.01
2017-11-23T18:49:15.492Z,0.98
2017-11-23T18:51:53.452Z,0.97
2017-11-23T18:54:24.212Z,0.92
2017-11-23T18:56:55.184Z,0.89
2017-11-23T18:59:30.338Z,0.85
2017-11-23T19:02:00.319Z,0.85
2017-11-23T19:04:30.534Z,0.82
2017-11-23T19:07:00.733Z,0.79
2017-11-23T19:09:34.921Z,0.77
2017-11-23T19:12:04.849Z,0.79
2017-11-23T19:14:34.769Z,0.75
2017-11-23T19:17:04.581Z,0.75
2017-11-23T19:19:34.615Z,0.77
2017-11-23T19:22:04.506Z,0.75
2017-11-23T19:24:34.579Z,0.74
2017-11-23T19:27:04.509Z,0.71
2017-11-23T19:29:35.833Z,0.75
2017-11-23T19:32:05.836Z,0.77
2017-11-23T19:34:37.320Z,0.77
2017-11-23T19:37:10.364Z,0.85
2017-11-23T19:39:40.229Z,0.93
2017-11-23T19:42:10.445Z,0.92
2017-11-23T19:44:41.696Z,1.00
2017-11-23T19:47:11.646Z,1.03
2017-11-23T19:49:41.505Z,1.04
2017-11-23T19:52:11.328Z,1.00
2017-11-23T19:54:41.603Z,1.03
2017-11-23T19:57:11.533Z,1.00
2017-11-23T19:59:41.682Z,1.12
2017-11-23T20:02:11.560Z,1.10
2017-11-23T20:04:41.798Z,1.08
2017-11-23T20:07:11.587Z,1.19
2017-11-23T20:09:41.372Z,1.21
2017-11-23T20:12:11.040Z,1.22
2017-11-23T20:14:40.908Z,1.13
2017-11-23T20:17:10.812Z,1.08
2017-11-23T20:19:40.989Z,1.02
2017-11-23T20:22:10.884Z,1.00
2017-11-23T20:24:40.751Z,0.92
2017-11-23T20:27:10.673Z,0.85
2017-11-23T20:29:40.713Z,0.81
2017-11-23T20:32:10.805Z,0.80
2017-11-23T20:34:40.944Z,0.78
2017-11-23T20:37:10.949Z,0.92
2017-11-23T20:39:41.042Z,0.89
2017-11-23T20:42:10.959Z,0.87
2017-11-23T20:44:40.840Z,0.91
2017-11-23T20:47:11.593Z,0.84
2017-11-23T20:49:41.560Z,0.85
2017-11-23T20:52:11.427Z,0.87
2017-11-23T20:54:41.353Z,0.94
2017-11-23T20:57:11.288Z,0.88
2017-11-23T20:59:41.168Z,0.87
2017-11-23T21:02:11.078Z,0.84
2017-11-23T21:04:40.983Z,0.80
2017-11-23T21:07:10.656Z,0.80
2017-11-23T21:09:41.025Z,0.79
2017-11-23T21:12:10.945Z,0.75
2017-11-23T21:14:41.583Z,0.75
2017-11-23T21:17:13.821Z,0.69
2017-11-23T21:19:43.658Z,0.66
2017-11-23T21:22:14.134Z,0.62
2017-11-23T21:24:44.363Z,0.56
2017-11-23T21:27:14.434Z,0.52
2017-11-23T21:29:44.281Z,0.50
2017-11-23T21:32:22.048Z,0.65
2017-11-23T21:34:55.084Z,0.60
2017-11-23T21:37:25.176Z,0.52
2017-11-23T21:39:55.121Z,0.46
2017-11-23T21:42:31.038Z,0.39
2017-11-23T21:45:02.765Z,0.37
2017-11-23T21:47:32.706Z,0.37
2017-11-23T21:50:03.105Z,0.47
2017-11-23T21:52:35.318Z,0.50
2017-11-23T21:55:06.401Z,0.51
2017-11-23T21:57:36.308Z,0.51
2017-11-23T22:00:06.203Z,0.50
2017-11-23T22:02:36.508Z,0.47
2017-11-23T22:05:06.384Z,0.44
2017-11-23T22:07:36.598Z,0.38
2017-11-23T22:10:06.544Z,0.37
2017-11-23T22:12:36.451Z,0.44
2017-11-23T22:15:07.077Z,0.52
2017-11-23T22:17:37.139Z,0.65
2017-11-23T22:20:07.147Z,0.57
2017-11-23T22:22:37.098Z,0.46
2017-11-23T22:25:07.040Z,0.47
2017-11-23T22:27:38.627Z,0.40
2017-11-23T22:32:44.860Z,0.23
2017-11-23T22:35:14.955Z,0.22
2017-11-23T22:37:45.035Z,0.21
2017-11-23T22:40:18.981Z,0.20
2017-11-23T22:42:48.847Z,0.19
2017-11-23T22:45:18.721Z,0.17
2017-11-23T22:47:48.700Z,0.16
2017-11-23T22:50:19.357Z,0.15
2017-11-23T22:52:49.751Z,0.16
2017-11-23T22:55:19.579Z,0.17
2017-11-23T22:57:49.629Z,0.21
2017-11-23T23:00:19.462Z,0.23
2017-11-23T23:02:49.155Z,0.31
2017-11-23T23:05:19.330Z,0.45
2017-11-23T23:07:49.227Z,0.42
2017-11-23T23:10:19.205Z,0.48
2017-11-23T23:12:48.890Z,0.62
2017-11-23T23:15:18.714Z,0.78
2017-11-23T23:17:48.603Z,0.98
2017-11-23T23:20:18.529Z,1.19
2017-11-23T23:22:52.552Z,1.27
2017-11-23T23:25:22.795Z,1.37
2017-11-23T23:27:54.117Z,1.43
2017-11-23T23:30:27.678Z,1.50
2017-11-23T23:32:57.754Z,1.64
2017-11-23T23:35:27.814Z,1.76
2017-11-23T23:37:57.730Z,1.86
2017-11-23T23:40:27.635Z,1.98
2017-11-23T23:42:57.759Z,2.01
2017-11-23T23:45:27.645Z,1.96
2017-11-23T23:47:57.639Z,2.00
2017-11-23T23:50:27.546Z,1.99
2017-11-23T23:52:57.674Z,2.04
2017-11-23T23:55:27.500Z,2.05
2017-11-23T23:57:57.368Z,2.04
